VTK225 UNAA-UIII
Flight info
| Callsign | VTK225 |
|---|---|
| Flight time | 1h 20m |
| Altitude | 35000 |
| Route | SELTI1Z SELTI B951 KEDRA A91 CS G490 NH NH5B |
| Aircraft | A319/M-SDE3FGHIRWY/LB1 |
Departure
| Time | 2026-04-24 12:52 |
|---|---|
| Airport | Abakan International Airport (UNAA) |
Arrival
| Time | 2026-04-24 14:13 |
|---|---|
| Airport | Irkutsk International Airport (UIII) |
| Time | Latitude | Longitude | Altitude | Speed | Heading |
|---|---|---|---|---|---|
| 2026-04-24 12:37 | 53.74995 | 91.39907 | 793 ft | 0 kts | 162° |
| 2026-04-24 12:49 | 53.74987 | 91.39911 | 811 ft | 2 kts | 162° |
| 2026-04-24 12:49 | 53.74963 | 91.39909 | 810 ft | 4 kts | 202° |
| 2026-04-24 12:49 | 53.74941 | 91.39869 | 810 ft | 5 kts | 238° |
| 2026-04-24 12:50 | 53.74928 | 91.39804 | 809 ft | 7 kts | 252° |
| 2026-04-24 12:50 | 53.74915 | 91.39720 | 809 ft | 8 kts | 265° |
| 2026-04-24 12:50 | 53.74932 | 91.39620 | 809 ft | 9 kts | 295° |
| 2026-04-24 12:50 | 53.74962 | 91.39512 | 809 ft | 11 kts | 295° |
| 2026-04-24 12:51 | 53.74995 | 91.39393 | 809 ft | 11 kts | 295° |
| 2026-04-24 12:51 | 53.75014 | 91.39313 | 810 ft | 5 kts | 275° |
| 2026-04-24 12:51 | 53.74994 | 91.39283 | 810 ft | 2 kts | 203° |
| 2026-04-24 12:51 | 53.74992 | 91.39282 | 810 ft | 0 kts | 202° |
| 2026-04-24 12:52 | 53.74869 | 91.39190 | 809 ft | 56 kts | 204° |
| 2026-04-24 12:52 | 53.74291 | 91.38738 | 813 ft | 124 kts | 204° |
| 2026-04-24 12:52 | 53.73352 | 91.38005 | 966 ft | 161 kts | 205° |
| 2026-04-24 12:52 | 53.72356 | 91.37251 | 1705 ft | 159 kts | 208° |
| 2026-04-24 12:53 | 53.71331 | 91.36455 | 2359 ft | 168 kts | 208° |
| 2026-04-24 12:53 | 53.70201 | 91.35571 | 2755 ft | 190 kts | 207° |
| 2026-04-24 12:53 | 53.68952 | 91.34475 | 3107 ft | 214 kts | 220° |
| 2026-04-24 12:53 | 53.68057 | 91.32371 | 3550 ft | 235 kts | 254° |
| 2026-04-24 12:54 | 53.68128 | 91.29562 | 4196 ft | 251 kts | 293° |
| 2026-04-24 12:54 | 53.69254 | 91.27286 | 5146 ft | 258 kts | 322° |
| 2026-04-24 12:54 | 53.70863 | 91.26003 | 6182 ft | 264 kts | 345° |
| 2026-04-24 12:54 | 53.72713 | 91.26033 | 7206 ft | 272 kts | 11° |
| 2026-04-24 12:55 | 53.74436 | 91.27480 | 8166 ft | 281 kts | 28° |
| 2026-04-24 12:55 | 53.76082 | 91.29314 | 9087 ft | 286 kts | 28° |
| 2026-04-24 12:55 | 53.77752 | 91.31207 | 9980 ft | 292 kts | 28° |
| 2026-04-24 12:55 | 53.79472 | 91.33166 | 10539 ft | 309 kts | 28° |
| 2026-04-24 12:56 | 53.81324 | 91.35265 | 10842 ft | 332 kts | 28° |
| 2026-04-24 12:56 | 53.83315 | 91.37514 | 11104 ft | 355 kts | 28° |
| 2026-04-24 12:56 | 53.85402 | 91.39875 | 11665 ft | 365 kts | 28° |
| 2026-04-24 12:56 | 53.87502 | 91.42259 | 12399 ft | 370 kts | 28° |
| 2026-04-24 12:57 | 53.89646 | 91.44707 | 13163 ft | 373 kts | 27° |
| 2026-04-24 12:57 | 53.91812 | 91.47178 | 13916 ft | 377 kts | 27° |
| 2026-04-24 12:57 | 53.94007 | 91.49680 | 14584 ft | 381 kts | 27° |
| 2026-04-24 12:57 | 53.96229 | 91.52211 | 15240 ft | 385 kts | 27° |
| 2026-04-24 12:58 | 53.98466 | 91.54756 | 15890 ft | 389 kts | 27° |
| 2026-04-24 12:58 | 54.00700 | 91.57300 | 16530 ft | 393 kts | 27° |
| 2026-04-24 12:58 | 54.02985 | 91.59910 | 17206 ft | 396 kts | 27° |
| 2026-04-24 12:58 | 54.05285 | 91.62539 | 17879 ft | 400 kts | 27° |
| 2026-04-24 12:59 | 54.07603 | 91.65189 | 18507 ft | 404 kts | 27° |
| 2026-04-24 12:59 | 54.09960 | 91.67881 | 19083 ft | 408 kts | 27° |
| 2026-04-24 12:59 | 54.12297 | 91.70554 | 19646 ft | 411 kts | 26° |
| 2026-04-24 12:59 | 54.14708 | 91.73319 | 20201 ft | 413 kts | 26° |
| 2026-04-24 13:00 | 54.17068 | 91.76044 | 20727 ft | 417 kts | 26° |
| 2026-04-24 13:00 | 54.19476 | 91.78830 | 21255 ft | 419 kts | 26° |
| 2026-04-24 13:00 | 54.21906 | 91.81640 | 21768 ft | 422 kts | 26° |
| 2026-04-24 13:00 | 54.24348 | 91.84462 | 22272 ft | 426 kts | 26° |
| 2026-04-24 13:01 | 54.26821 | 91.87321 | 22692 ft | 430 kts | 26° |
| 2026-04-24 13:01 | 54.29316 | 91.90209 | 23166 ft | 434 kts | 26° |
| 2026-04-24 13:01 | 54.31826 | 91.93125 | 23643 ft | 437 kts | 26° |
| 2026-04-24 13:01 | 54.34314 | 91.96016 | 24041 ft | 439 kts | 26° |
| 2026-04-24 13:02 | 54.36854 | 91.98982 | 24435 ft | 442 kts | 26° |
| 2026-04-24 13:02 | 54.39278 | 92.02346 | 24817 ft | 456 kts | 36° |
| 2026-04-24 13:02 | 54.41377 | 92.06523 | 25188 ft | 469 kts | 47° |
| 2026-04-24 13:02 | 54.43055 | 92.11415 | 25553 ft | 482 kts | 59° |
| 2026-04-24 13:03 | 54.44217 | 92.16915 | 25927 ft | 494 kts | 70° |
| 2026-04-24 13:03 | 54.44832 | 92.22685 | 26276 ft | 500 kts | 77° |
| 2026-04-24 13:03 | 54.45362 | 92.28617 | 26624 ft | 502 kts | 77° |
| 2026-04-24 13:03 | 54.45894 | 92.34580 | 26964 ft | 505 kts | 77° |
| 2026-04-24 13:04 | 54.46423 | 92.40560 | 27295 ft | 507 kts | 77° |
| 2026-04-24 13:04 | 54.46950 | 92.46586 | 27599 ft | 510 kts | 77° |
| 2026-04-24 13:04 | 54.47468 | 92.52623 | 27928 ft | 513 kts | 77° |
| 2026-04-24 13:04 | 54.47989 | 92.58729 | 28188 ft | 517 kts | 77° |
| 2026-04-24 13:05 | 54.48509 | 92.64859 | 28469 ft | 519 kts | 77° |
| 2026-04-24 13:05 | 54.49035 | 92.71035 | 28787 ft | 522 kts | 77° |
| 2026-04-24 13:05 | 54.49553 | 92.77154 | 29081 ft | 524 kts | 77° |
| 2026-04-24 13:05 | 54.50079 | 92.83387 | 29449 ft | 524 kts | 77° |
| 2026-04-24 13:06 | 54.50600 | 92.89603 | 29874 ft | 524 kts | 77° |
| 2026-04-24 13:06 | 54.51114 | 92.95804 | 30248 ft | 523 kts | 77° |
| 2026-04-24 13:06 | 54.51622 | 93.02007 | 30588 ft | 523 kts | 77° |
| 2026-04-24 13:06 | 54.52128 | 93.08234 | 30953 ft | 523 kts | 77° |
| 2026-04-24 13:07 | 54.52627 | 93.14425 | 31331 ft | 522 kts | 77° |
| 2026-04-24 13:07 | 54.53122 | 93.20539 | 31701 ft | 521 kts | 77° |
| 2026-04-24 13:07 | 54.53623 | 93.26739 | 32122 ft | 520 kts | 77° |
| 2026-04-24 13:07 | 54.54116 | 93.32896 | 32529 ft | 518 kts | 77° |
| 2026-04-24 13:08 | 54.54598 | 93.38986 | 32915 ft | 517 kts | 78° |
| 2026-04-24 13:08 | 54.55078 | 93.45125 | 33287 ft | 517 kts | 78° |
| 2026-04-24 13:08 | 54.55556 | 93.51270 | 33672 ft | 516 kts | 78° |
| 2026-04-24 13:09 | 54.56485 | 93.63547 | 34397 ft | 515 kts | 78° |
| 2026-04-24 13:09 | 54.56935 | 93.69679 | 34731 ft | 514 kts | 79° |
| 2026-04-24 13:09 | 54.57375 | 93.75727 | 35038 ft | 514 kts | 79° |
| 2026-04-24 13:09 | 54.57817 | 93.81847 | 35136 ft | 514 kts | 79° |
| 2026-04-24 13:10 | 54.58697 | 93.94092 | 35143 ft | 514 kts | 79° |
| 2026-04-24 13:10 | 54.59568 | 94.06337 | 35149 ft | 514 kts | 79° |
| 2026-04-24 13:11 | 54.60285 | 94.16512 | 35147 ft | 514 kts | 79° |
| 2026-04-24 13:11 | 54.61137 | 94.28796 | 35149 ft | 514 kts | 79° |
| 2026-04-24 13:12 | 54.61975 | 94.41050 | 35158 ft | 514 kts | 79° |
| 2026-04-24 13:12 | 54.62791 | 94.53246 | 35154 ft | 514 kts | 80° |
| 2026-04-24 13:13 | 54.63590 | 94.65532 | 35151 ft | 514 kts | 80° |
| 2026-04-24 13:13 | 54.64388 | 94.77833 | 35147 ft | 514 kts | 80° |
| 2026-04-24 13:14 | 54.65174 | 94.90044 | 35147 ft | 514 kts | 80° |
| 2026-04-24 13:14 | 54.65954 | 95.02358 | 35162 ft | 515 kts | 80° |
| 2026-04-24 13:15 | 54.66712 | 95.14668 | 35151 ft | 515 kts | 81° |
| 2026-04-24 13:15 | 54.67450 | 95.26920 | 35143 ft | 515 kts | 81° |
| 2026-04-24 13:16 | 54.68188 | 95.39242 | 35144 ft | 515 kts | 81° |
| 2026-04-24 13:16 | 54.68918 | 95.51566 | 35138 ft | 515 kts | 81° |
| 2026-04-24 13:17 | 54.69636 | 95.63886 | 35133 ft | 515 kts | 81° |
| 2026-04-24 13:17 | 54.70328 | 95.76132 | 35131 ft | 515 kts | 81° |
| 2026-04-24 13:18 | 54.71007 | 95.88460 | 35125 ft | 514 kts | 81° |
| 2026-04-24 13:18 | 54.71683 | 96.00771 | 35124 ft | 514 kts | 81° |
| 2026-04-24 13:19 | 54.72347 | 96.13097 | 35126 ft | 514 kts | 81° |
| 2026-04-24 13:19 | 54.72988 | 96.25442 | 35119 ft | 514 kts | 82° |
| 2026-04-24 13:20 | 54.73610 | 96.37681 | 35117 ft | 514 kts | 82° |
| 2026-04-24 13:20 | 54.74235 | 96.50000 | 35108 ft | 514 kts | 82° |
| 2026-04-24 13:21 | 54.74852 | 96.62325 | 35119 ft | 513 kts | 82° |
| 2026-04-24 13:21 | 54.75494 | 96.74603 | 35114 ft | 511 kts | 81° |
| 2026-04-24 13:22 | 54.76298 | 96.86833 | 35116 ft | 510 kts | 80° |
| 2026-04-24 13:22 | 54.77143 | 96.99043 | 35107 ft | 510 kts | 80° |
| 2026-04-24 13:23 | 54.77933 | 97.11246 | 35118 ft | 509 kts | 81° |
| 2026-04-24 13:23 | 54.78660 | 97.23390 | 35111 ft | 508 kts | 82° |
| 2026-04-24 13:24 | 54.79375 | 97.35599 | 35136 ft | 508 kts | 81° |
| 2026-04-24 13:24 | 54.80091 | 97.47761 | 35122 ft | 507 kts | 81° |
| 2026-04-24 13:25 | 54.80804 | 97.59925 | 35112 ft | 506 kts | 81° |
| 2026-04-24 13:25 | 54.81500 | 97.72081 | 35110 ft | 506 kts | 82° |
| 2026-04-24 13:26 | 54.82173 | 97.84209 | 35096 ft | 505 kts | 82° |
| 2026-04-24 13:26 | 54.82876 | 97.96328 | 35092 ft | 504 kts | 82° |
| 2026-04-24 13:27 | 54.83624 | 98.08400 | 35083 ft | 504 kts | 82° |
| 2026-04-24 13:27 | 54.84346 | 98.20430 | 35075 ft | 504 kts | 82° |
| 2026-04-24 13:28 | 54.85041 | 98.32557 | 35066 ft | 504 kts | 83° |
| 2026-04-24 13:28 | 54.85719 | 98.44678 | 35063 ft | 504 kts | 83° |
| 2026-04-24 13:29 | 54.86388 | 98.56806 | 35040 ft | 504 kts | 83° |
| 2026-04-24 13:29 | 54.87048 | 98.68857 | 35039 ft | 504 kts | 83° |
| 2026-04-24 13:30 | 54.87695 | 98.80998 | 35027 ft | 505 kts | 83° |
| 2026-04-24 13:30 | 54.88330 | 98.93155 | 35020 ft | 506 kts | 83° |
| 2026-04-24 13:31 | 54.88131 | 99.05363 | 35014 ft | 507 kts | 101° |
| 2026-04-24 13:31 | 54.85971 | 99.16871 | 35013 ft | 504 kts | 118° |
| 2026-04-24 13:32 | 54.82856 | 99.27775 | 35015 ft | 504 kts | 118° |
| 2026-04-24 13:32 | 54.79753 | 99.38684 | 35008 ft | 505 kts | 119° |
| 2026-04-24 13:33 | 54.76616 | 99.49584 | 35013 ft | 505 kts | 119° |
| 2026-04-24 13:33 | 54.73455 | 99.60462 | 35002 ft | 505 kts | 119° |
| 2026-04-24 13:34 | 54.70294 | 99.71338 | 35003 ft | 505 kts | 119° |
| 2026-04-24 13:34 | 54.67140 | 99.82126 | 34996 ft | 506 kts | 119° |
| 2026-04-24 13:35 | 54.63953 | 99.92972 | 34993 ft | 507 kts | 120° |
| 2026-04-24 13:35 | 54.60757 | 100.03834 | 34986 ft | 507 kts | 120° |
| 2026-04-24 13:36 | 54.57549 | 100.14686 | 34966 ft | 507 kts | 120° |
| 2026-04-24 13:36 | 54.54325 | 100.25509 | 34977 ft | 508 kts | 120° |
| 2026-04-24 13:37 | 54.51092 | 100.36324 | 34986 ft | 508 kts | 120° |
| 2026-04-24 13:37 | 54.47853 | 100.47128 | 34993 ft | 508 kts | 120° |
| 2026-04-24 13:38 | 54.44590 | 100.57919 | 34994 ft | 508 kts | 120° |
| 2026-04-24 13:38 | 54.41317 | 100.68692 | 34999 ft | 508 kts | 120° |
| 2026-04-24 13:39 | 54.38067 | 100.79374 | 34993 ft | 509 kts | 120° |
| 2026-04-24 13:39 | 54.34777 | 100.90153 | 34997 ft | 509 kts | 120° |
| 2026-04-24 13:40 | 54.31470 | 101.00925 | 35001 ft | 510 kts | 120° |
| 2026-04-24 13:40 | 54.28172 | 101.11597 | 35002 ft | 510 kts | 120° |
| 2026-04-24 13:41 | 54.24849 | 101.22340 | 35014 ft | 510 kts | 120° |
| 2026-04-24 13:41 | 54.21509 | 101.33058 | 34987 ft | 510 kts | 120° |
| 2026-04-24 13:42 | 54.18159 | 101.43738 | 35015 ft | 509 kts | 120° |
| 2026-04-24 13:42 | 54.14834 | 101.54341 | 35025 ft | 509 kts | 120° |
| 2026-04-24 13:43 | 54.11491 | 101.64983 | 35028 ft | 508 kts | 120° |
| 2026-04-24 13:43 | 54.08140 | 101.75583 | 35032 ft | 508 kts | 121° |
| 2026-04-24 13:44 | 54.04763 | 101.86138 | 35031 ft | 507 kts | 121° |
| 2026-04-24 13:44 | 54.01381 | 101.96686 | 35027 ft | 507 kts | 121° |
| 2026-04-24 13:45 | 53.98017 | 102.07225 | 35022 ft | 507 kts | 121° |
| 2026-04-24 13:45 | 53.94647 | 102.17747 | 35020 ft | 507 kts | 121° |
| 2026-04-24 13:46 | 53.91289 | 102.28168 | 35026 ft | 506 kts | 121° |
| 2026-04-24 13:46 | 53.87892 | 102.38696 | 35027 ft | 505 kts | 121° |
| 2026-04-24 13:47 | 53.84531 | 102.49064 | 34988 ft | 504 kts | 121° |
| 2026-04-24 13:47 | 53.81127 | 102.59452 | 35006 ft | 503 kts | 121° |
| 2026-04-24 13:48 | 53.77734 | 102.69805 | 35007 ft | 503 kts | 121° |
| 2026-04-24 13:48 | 53.74333 | 102.80127 | 35010 ft | 502 kts | 121° |
| 2026-04-24 13:49 | 53.70948 | 102.90385 | 35007 ft | 502 kts | 121° |
| 2026-04-24 13:49 | 53.67539 | 103.00679 | 35004 ft | 502 kts | 121° |
| 2026-04-24 13:50 | 53.64130 | 103.10948 | 34793 ft | 502 kts | 122° |
| 2026-04-24 13:50 | 53.62407 | 103.16065 | 34553 ft | 501 kts | 122° |
| 2026-04-24 13:50 | 53.60675 | 103.21167 | 34314 ft | 500 kts | 122° |
| 2026-04-24 13:51 | 53.58973 | 103.26190 | 34081 ft | 501 kts | 122° |
| 2026-04-24 13:51 | 53.57252 | 103.31317 | 33820 ft | 501 kts | 122° |
| 2026-04-24 13:51 | 53.55540 | 103.36427 | 33540 ft | 502 kts | 122° |
| 2026-04-24 13:51 | 53.53821 | 103.41535 | 32669 ft | 504 kts | 122° |
| 2026-04-24 13:52 | 53.52661 | 103.44958 | 31809 ft | 511 kts | 123° |
| 2026-04-24 13:52 | 53.50280 | 103.51951 | 30361 ft | 517 kts | 123° |
| 2026-04-24 13:52 | 53.48483 | 103.57203 | 29109 ft | 521 kts | 123° |
| 2026-04-24 13:52 | 53.46678 | 103.62482 | 27817 ft | 522 kts | 123° |
| 2026-04-24 13:53 | 53.44894 | 103.67712 | 26758 ft | 520 kts | 123° |
| 2026-04-24 13:53 | 53.43098 | 103.72986 | 25440 ft | 522 kts | 122° |
| 2026-04-24 13:53 | 53.41300 | 103.78262 | 24488 ft | 516 kts | 123° |
| 2026-04-24 13:53 | 53.39290 | 103.83167 | 23423 ft | 508 kts | 132° |
| 2026-04-24 13:54 | 53.36899 | 103.87429 | 22528 ft | 495 kts | 141° |
| 2026-04-24 13:54 | 53.34250 | 103.90999 | 21739 ft | 481 kts | 149° |
| 2026-04-24 13:54 | 53.31412 | 103.93852 | 20973 ft | 470 kts | 155° |
| 2026-04-24 13:54 | 53.28613 | 103.96454 | 20253 ft | 463 kts | 155° |
| 2026-04-24 13:55 | 53.25824 | 103.99066 | 19524 ft | 458 kts | 154° |
| 2026-04-24 13:55 | 53.23047 | 104.01663 | 18842 ft | 453 kts | 154° |
| 2026-04-24 13:55 | 53.20306 | 104.04217 | 18139 ft | 449 kts | 154° |
| 2026-04-24 13:55 | 53.17601 | 104.06738 | 17469 ft | 444 kts | 154° |
| 2026-04-24 13:56 | 53.14916 | 104.09238 | 16851 ft | 439 kts | 154° |
| 2026-04-24 13:56 | 53.12263 | 104.11702 | 16248 ft | 435 kts | 154° |
| 2026-04-24 13:56 | 53.10513 | 104.13320 | 15877 ft | 433 kts | 154° |
| 2026-04-24 13:56 | 53.07890 | 104.15738 | 15311 ft | 429 kts | 154° |
| 2026-04-24 13:57 | 53.05280 | 104.18125 | 14771 ft | 425 kts | 154° |
| 2026-04-24 13:57 | 53.02694 | 104.20469 | 14228 ft | 421 kts | 154° |
| 2026-04-24 13:57 | 53.00127 | 104.22783 | 13654 ft | 418 kts | 153° |
| 2026-04-24 13:57 | 52.97578 | 104.25081 | 13064 ft | 413 kts | 153° |
| 2026-04-24 13:58 | 52.95065 | 104.27346 | 12471 ft | 409 kts | 153° |
| 2026-04-24 13:58 | 52.92610 | 104.29557 | 11871 ft | 404 kts | 153° |
| 2026-04-24 13:58 | 52.90148 | 104.31771 | 11253 ft | 401 kts | 153° |
| 2026-04-24 13:58 | 52.87735 | 104.33939 | 11047 ft | 385 kts | 153° |
| 2026-04-24 13:59 | 52.85424 | 104.36012 | 10918 ft | 369 kts | 153° |
| 2026-04-24 13:59 | 52.83210 | 104.37985 | 10790 ft | 355 kts | 153° |
| 2026-04-24 13:59 | 52.81073 | 104.39889 | 10670 ft | 343 kts | 153° |
| 2026-04-24 13:59 | 52.79001 | 104.41739 | 10532 ft | 332 kts | 153° |
| 2026-04-24 14:00 | 52.76987 | 104.43537 | 10325 ft | 325 kts | 153° |
| 2026-04-24 14:00 | 52.75020 | 104.45285 | 10242 ft | 324 kts | 154° |
| 2026-04-24 14:00 | 52.72955 | 104.46787 | 10112 ft | 323 kts | 159° |
| 2026-04-24 14:00 | 52.70886 | 104.48240 | 9952 ft | 323 kts | 158° |
| 2026-04-24 14:01 | 52.68804 | 104.49692 | 9502 ft | 324 kts | 159° |
| 2026-04-24 14:01 | 52.66747 | 104.51124 | 9198 ft | 319 kts | 159° |
| 2026-04-24 14:01 | 52.64713 | 104.52546 | 8844 ft | 315 kts | 159° |
| 2026-04-24 14:01 | 52.62700 | 104.53950 | 8468 ft | 313 kts | 159° |
| 2026-04-24 14:02 | 52.60708 | 104.55338 | 8133 ft | 309 kts | 159° |
| 2026-04-24 14:02 | 52.58739 | 104.56705 | 7812 ft | 305 kts | 159° |
| 2026-04-24 14:02 | 52.56797 | 104.58047 | 7488 ft | 301 kts | 159° |
| 2026-04-24 14:02 | 52.54883 | 104.59369 | 7299 ft | 296 kts | 159° |
| 2026-04-24 14:03 | 52.52987 | 104.60682 | 7177 ft | 294 kts | 159° |
| 2026-04-24 14:03 | 52.51127 | 104.61970 | 7110 ft | 294 kts | 159° |
| 2026-04-24 14:03 | 52.49242 | 104.63274 | 6984 ft | 293 kts | 159° |
| 2026-04-24 14:03 | 52.47366 | 104.64575 | 6833 ft | 291 kts | 159° |
| 2026-04-24 14:04 | 52.45502 | 104.65865 | 6673 ft | 290 kts | 160° |
| 2026-04-24 14:04 | 52.43649 | 104.67147 | 6521 ft | 288 kts | 160° |
| 2026-04-24 14:04 | 52.41803 | 104.68422 | 6361 ft | 285 kts | 160° |
| 2026-04-24 14:04 | 52.40001 | 104.69666 | 6202 ft | 275 kts | 160° |
| 2026-04-24 14:05 | 52.38266 | 104.70861 | 6057 ft | 266 kts | 160° |
| 2026-04-24 14:05 | 52.36590 | 104.72013 | 5914 ft | 257 kts | 160° |
| 2026-04-24 14:05 | 52.34988 | 104.73112 | 5781 ft | 248 kts | 160° |
| 2026-04-24 14:05 | 52.33421 | 104.74182 | 5648 ft | 240 kts | 160° |
| 2026-04-24 14:06 | 52.31916 | 104.75213 | 5516 ft | 230 kts | 161° |
| 2026-04-24 14:06 | 52.30441 | 104.76223 | 5401 ft | 229 kts | 161° |
| 2026-04-24 14:06 | 52.28932 | 104.76973 | 5290 ft | 223 kts | 177° |
| 2026-04-24 14:06 | 52.27410 | 104.76942 | 5195 ft | 216 kts | 194° |
| 2026-04-24 14:07 | 52.26003 | 104.76199 | 5097 ft | 210 kts | 211° |
| 2026-04-24 14:07 | 52.24815 | 104.74865 | 4999 ft | 206 kts | 226° |
| 2026-04-24 14:07 | 52.23776 | 104.73250 | 4901 ft | 206 kts | 226° |
| 2026-04-24 14:07 | 52.22748 | 104.71671 | 4797 ft | 199 kts | 225° |
| 2026-04-24 14:08 | 52.21759 | 104.70155 | 4712 ft | 191 kts | 225° |
| 2026-04-24 14:08 | 52.20803 | 104.68690 | 4620 ft | 186 kts | 225° |
| 2026-04-24 14:08 | 52.20073 | 104.67024 | 4524 ft | 183 kts | 250° |
| 2026-04-24 14:08 | 52.19951 | 104.64975 | 4522 ft | 185 kts | 279° |
| 2026-04-24 14:09 | 52.20400 | 104.63002 | 4519 ft | 187 kts | 291° |
| 2026-04-24 14:09 | 52.20925 | 104.61072 | 4511 ft | 183 kts | 291° |
| 2026-04-24 14:09 | 52.21427 | 104.59214 | 4345 ft | 177 kts | 291° |
| 2026-04-24 14:09 | 52.21919 | 104.57385 | 4108 ft | 175 kts | 290° |
| 2026-04-24 14:10 | 52.22398 | 104.55604 | 3858 ft | 171 kts | 290° |
| 2026-04-24 14:10 | 52.22865 | 104.53863 | 3620 ft | 162 kts | 290° |
| 2026-04-24 14:10 | 52.23295 | 104.52263 | 3379 ft | 146 kts | 290° |
| 2026-04-24 14:10 | 52.23692 | 104.50781 | 3162 ft | 139 kts | 289° |
| 2026-04-24 14:11 | 52.24072 | 104.49360 | 2986 ft | 135 kts | 290° |
| 2026-04-24 14:11 | 52.24445 | 104.47964 | 2780 ft | 133 kts | 290° |
| 2026-04-24 14:11 | 52.25177 | 104.45227 | 2326 ft | 129 kts | 291° |
| 2026-04-24 14:12 | 52.25534 | 104.43890 | 2111 ft | 128 kts | 291° |
| 2026-04-24 14:12 | 52.25890 | 104.42557 | 1912 ft | 128 kts | 291° |
| 2026-04-24 14:12 | 52.26246 | 104.41232 | 1705 ft | 127 kts | 291° |
| 2026-04-24 14:12 | 52.26575 | 104.39969 | 1651 ft | 106 kts | 291° |
| 2026-04-24 14:13 | 52.26804 | 104.39124 | 1651 ft | 60 kts | 294° |
| 2026-04-24 14:13 | 52.26955 | 104.38564 | 1649 ft | 49 kts | 293° |
| 2026-04-24 14:13 | 52.27039 | 104.38246 | 1651 ft | 14 kts | 293° |
| 2026-04-24 14:13 | 52.27046 | 104.38123 | 1652 ft | 10 kts | 226° |
| 2026-04-24 14:14 | 52.26979 | 104.38070 | 1651 ft | 12 kts | 205° |
| 2026-04-24 14:14 | 52.26898 | 104.38008 | 1651 ft | 14 kts | 205° |
| 2026-04-24 14:14 | 52.26844 | 104.37875 | 1651 ft | 9 kts | 293° |
| 2026-04-24 14:15 | 52.26874 | 104.37763 | 1651 ft | 12 kts | 293° |
| 2026-04-24 14:15 | 52.26909 | 104.37632 | 1651 ft | 13 kts | 293° |
| 2026-04-24 14:15 | 52.26945 | 104.37494 | 1651 ft | 13 kts | 293° |
| 2026-04-24 14:15 | 52.26981 | 104.37357 | 1651 ft | 13 kts | 293° |
| 2026-04-24 14:16 | 52.26995 | 104.37223 | 1651 ft | 12 kts | 250° |
| 2026-04-24 14:16 | 52.27000 | 104.37101 | 1651 ft | 11 kts | 286° |
| 2026-04-24 14:16 | 52.27025 | 104.36970 | 1651 ft | 13 kts | 289° |
| 2026-04-24 14:17 | 52.27087 | 104.36699 | 1651 ft | 13 kts | 290° |
| 2026-04-24 14:17 | 52.27118 | 104.36564 | 1651 ft | 13 kts | 291° |
| 2026-04-24 14:17 | 52.27180 | 104.36283 | 1651 ft | 13 kts | 284° |
| 2026-04-24 14:18 | 52.27183 | 104.36130 | 1651 ft | 14 kts | 267° |
| 2026-04-24 14:18 | 52.27178 | 104.35974 | 1651 ft | 14 kts | 266° |
| 2026-04-24 14:18 | 52.27170 | 104.35835 | 1651 ft | 11 kts | 255° |
| 2026-04-24 14:18 | 52.27151 | 104.35709 | 1651 ft | 12 kts | 265° |
| 2026-04-24 14:19 | 52.27149 | 104.35648 | 1651 ft | 7 kts | 266° |
| 2026-04-24 14:19 | 52.27144 | 104.35530 | 1651 ft | 6 kts | 266° |
| 2026-04-24 14:19 | 52.27150 | 104.35457 | 1651 ft | 7 kts | 302° |
| 2026-04-24 14:19 | 52.27188 | 104.35457 | 1651 ft | 4 kts | 62° |
| 2026-04-24 14:20 | 52.27189 | 104.35504 | 1651 ft | 4 kts | 90° |
| 2026-04-24 14:20 | 52.27190 | 104.35534 | 1651 ft | 1 kts | 88° |